sensor_id;sensor_type;location;lat;lon;timestamp;P1;durP1;ratioP1;P2;durP2;ratioP2
4603;SDS011;2314;48.272;11.562;2024-02-26T00:00:22;32.43;;;16.77;;
4603;SDS011;2314;48.272;11.562;2024-02-26T00:02:50;34.93;;;16.93;;
4603;SDS011;2314;48.272;11.562;2024-02-26T00:05:18;34.43;;;17.23;;
4603;SDS011;2314;48.272;11.562;2024-02-26T00:07:45;33.73;;;17.73;;
4603;SDS011;2314;48.272;11.562;2024-02-26T00:10:13;41.50;;;19.37;;
4603;SDS011;2314;48.272;11.562;2024-02-26T00:12:41;36.97;;;17.83;;
4603;SDS011;2314;48.272;11.562;2024-02-26T00:15:08;40.47;;;17.97;;
4603;SDS011;2314;48.272;11.562;2024-02-26T00:17:36;34.00;;;16.27;;
4603;SDS011;2314;48.272;11.562;2024-02-26T00:20:04;41.70;;;17.40;;
4603;SDS011;2314;48.272;11.562;2024-02-26T00:22:35;35.83;;;18.57;;
4603;SDS011;2314;48.272;11.562;2024-02-26T00:25:02;44.87;;;19.23;;
4603;SDS011;2314;48.272;11.562;2024-02-26T00:27:31;40.23;;;18.63;;
4603;SDS011;2314;48.272;11.562;2024-02-26T00:29:58;37.20;;;18.90;;
4603;SDS011;2314;48.272;11.562;2024-02-26T00:32:25;42.40;;;19.57;;
4603;SDS011;2314;48.272;11.562;2024-02-26T00:34:52;44.43;;;20.50;;
4603;SDS011;2314;48.272;11.562;2024-02-26T00:37:19;41.63;;;20.53;;
4603;SDS011;2314;48.272;11.562;2024-02-26T00:39:47;46.40;;;19.30;;
4603;SDS011;2314;48.272;11.562;2024-02-26T00:42:14;43.30;;;18.87;;
4603;SDS011;2314;48.272;11.562;2024-02-26T00:44:41;47.30;;;20.50;;
4603;SDS011;2314;48.272;11.562;2024-02-26T00:47:08;48.00;;;21.00;;
4603;SDS011;2314;48.272;11.562;2024-02-26T00:49:36;45.60;;;20.80;;
4603;SDS011;2314;48.272;11.562;2024-02-26T00:52:04;40.37;;;19.67;;
4603;SDS011;2314;48.272;11.562;2024-02-26T00:54:31;43.53;;;21.47;;
4603;SDS011;2314;48.272;11.562;2024-02-26T00:56:59;42.80;;;19.83;;
4603;SDS011;2314;48.272;11.562;2024-02-26T00:59:26;44.70;;;21.17;;
4603;SDS011;2314;48.272;11.562;2024-02-26T01:01:53;38.80;;;18.20;;
4603;SDS011;2314;48.272;11.562;2024-02-26T01:04:20;45.07;;;19.87;;
4603;SDS011;2314;48.272;11.562;2024-02-26T01:06:47;45.77;;;21.27;;
4603;SDS011;2314;48.272;11.562;2024-02-26T01:09:14;49.33;;;21.90;;
4603;SDS011;2314;48.272;11.562;2024-02-26T01:11:43;43.07;;;20.10;;
4603;SDS011;2314;48.272;11.562;2024-02-26T01:14:11;53.27;;;22.70;;
4603;SDS011;2314;48.272;11.562;2024-02-26T01:16:38;49.00;;;22.40;;
4603;SDS011;2314;48.272;11.562;2024-02-26T01:19:05;48.73;;;22.43;;
4603;SDS011;2314;48.272;11.562;2024-02-26T01:21:32;51.20;;;22.13;;
4603;SDS011;2314;48.272;11.562;2024-02-26T01:23:59;46.77;;;21.77;;
4603;SDS011;2314;48.272;11.562;2024-02-26T01:26:26;45.40;;;20.53;;
4603;SDS011;2314;48.272;11.562;2024-02-26T01:28:53;45.17;;;20.30;;
4603;SDS011;2314;48.272;11.562;2024-02-26T01:31:22;46.57;;;20.30;;
4603;SDS011;2314;48.272;11.562;2024-02-26T01:33:49;46.03;;;19.10;;
4603;SDS011;2314;48.272;11.562;2024-02-26T01:36:16;48.97;;;22.30;;
4603;SDS011;2314;48.272;11.562;2024-02-26T01:38:43;43.27;;;20.90;;
4603;SDS011;2314;48.272;11.562;2024-02-26T01:41:10;48.83;;;22.67;;
4603;SDS011;2314;48.272;11.562;2024-02-26T01:43:37;47.07;;;21.53;;
4603;SDS011;2314;48.272;11.562;2024-02-26T01:46:04;47.77;;;20.97;;
4603;SDS011;2314;48.272;11.562;2024-02-26T01:48:33;51.00;;;22.63;;
4603;SDS011;2314;48.272;11.562;2024-02-26T01:51:01;54.37;;;22.47;;
4603;SDS011;2314;48.272;11.562;2024-02-26T01:53:28;47.37;;;23.07;;
4603;SDS011;2314;48.272;11.562;2024-02-26T01:55:56;48.70;;;22.50;;
4603;SDS011;2314;48.272;11.562;2024-02-26T01:58:23;43.47;;;20.03;;
4603;SDS011;2314;48.272;11.562;2024-02-26T02:00:50;41.97;;;21.60;;
4603;SDS011;2314;48.272;11.562;2024-02-26T02:03:17;50.60;;;22.20;;
4603;SDS011;2314;48.272;11.562;2024-02-26T02:05:45;41.47;;;21.70;;
4603;SDS011;2314;48.272;11.562;2024-02-26T02:08:12;49.37;;;22.83;;
4603;SDS011;2314;48.272;11.562;2024-02-26T02:10:40;55.77;;;25.60;;
4603;SDS011;2314;48.272;11.562;2024-02-26T02:13:08;43.90;;;22.73;;
4603;SDS011;2314;48.272;11.562;2024-02-26T02:15:35;49.27;;;22.60;;
4603;SDS011;2314;48.272;11.562;2024-02-26T02:18:02;45.77;;;21.10;;
4603;SDS011;2314;48.272;11.562;2024-02-26T02:20:33;47.93;;;21.50;;
4603;SDS011;2314;48.272;11.562;2024-02-26T02:23:00;46.53;;;21.20;;
4603;SDS011;2314;48.272;11.562;2024-02-26T02:25:28;49.00;;;22.50;;
4603;SDS011;2314;48.272;11.562;2024-02-26T02:27:55;47.50;;;21.80;;
4603;SDS011;2314;48.272;11.562;2024-02-26T02:30:24;50.53;;;20.13;;
4603;SDS011;2314;48.272;11.562;2024-02-26T02:32:54;50.10;;;23.60;;
4603;SDS011;2314;48.272;11.562;2024-02-26T02:35:23;45.87;;;21.80;;
4603;SDS011;2314;48.272;11.562;2024-02-26T02:37:52;48.97;;;22.20;;
4603;SDS011;2314;48.272;11.562;2024-02-26T02:40:19;40.50;;;19.80;;
4603;SDS011;2314;48.272;11.562;2024-02-26T02:42:46;52.37;;;23.53;;
4603;SDS011;2314;48.272;11.562;2024-02-26T02:45:13;53.27;;;24.03;;
4603;SDS011;2314;48.272;11.562;2024-02-26T02:47:40;55.00;;;23.70;;
4603;SDS011;2314;48.272;11.562;2024-02-26T02:50:07;50.30;;;22.90;;
4603;SDS011;2314;48.272;11.562;2024-02-26T02:52:35;45.33;;;22.90;;
4603;SDS011;2314;48.272;11.562;2024-02-26T02:55:04;49.27;;;22.40;;
4603;SDS011;2314;48.272;11.562;2024-02-26T02:57:31;45.90;;;21.93;;
4603;SDS011;2314;48.272;11.562;2024-02-26T02:59:59;49.60;;;21.70;;
4603;SDS011;2314;48.272;11.562;2024-02-26T03:02:28;48.30;;;22.93;;
4603;SDS011;2314;48.272;11.562;2024-02-26T03:04:55;47.03;;;22.33;;
4603;SDS011;2314;48.272;11.562;2024-02-26T03:07:22;48.47;;;22.27;;
4603;SDS011;2314;48.272;11.562;2024-02-26T03:09:49;46.63;;;21.10;;
4603;SDS011;2314;48.272;11.562;2024-02-26T03:12:18;51.50;;;21.47;;
4603;SDS011;2314;48.272;11.562;2024-02-26T03:14:45;39.90;;;20.43;;
4603;SDS011;2314;48.272;11.562;2024-02-26T03:17:13;45.07;;;20.40;;
4603;SDS011;2314;48.272;11.562;2024-02-26T03:19:40;42.30;;;20.10;;
4603;SDS011;2314;48.272;11.562;2024-02-26T03:22:07;41.73;;;20.40;;
4603;SDS011;2314;48.272;11.562;2024-02-26T03:24:34;47.47;;;21.33;;
4603;SDS011;2314;48.272;11.562;2024-02-26T03:27:01;38.23;;;17.83;;
4603;SDS011;2314;48.272;11.562;2024-02-26T03:29:31;44.90;;;20.60;;
4603;SDS011;2314;48.272;11.562;2024-02-26T03:31:58;45.43;;;21.77;;
4603;SDS011;2314;48.272;11.562;2024-02-26T03:34:25;40.10;;;19.40;;
4603;SDS011;2314;48.272;11.562;2024-02-26T03:36:52;45.07;;;20.73;;
4603;SDS011;2314;48.272;11.562;2024-02-26T03:39:19;41.83;;;19.20;;
4603;SDS011;2314;48.272;11.562;2024-02-26T03:41:47;36.57;;;18.30;;
4603;SDS011;2314;48.272;11.562;2024-02-26T03:44:14;36.80;;;18.27;;
4603;SDS011;2314;48.272;11.562;2024-02-26T03:46:42;43.13;;;21.07;;
4603;SDS011;2314;48.272;11.562;2024-02-26T03:49:10;44.63;;;20.27;;
4603;SDS011;2314;48.272;11.562;2024-02-26T03:51:38;38.33;;;20.50;;
4603;SDS011;2314;48.272;11.562;2024-02-26T03:54:05;37.57;;;18.90;;
4603;SDS011;2314;48.272;11.562;2024-02-26T03:56:32;38.30;;;19.40;;
4603;SDS011;2314;48.272;11.562;2024-02-26T03:58:59;39.47;;;19.37;;
4603;SDS011;2314;48.272;11.562;2024-02-26T04:01:27;35.67;;;17.30;;
4603;SDS011;2314;48.272;11.562;2024-02-26T04:03:55;38.27;;;19.33;;
4603;SDS011;2314;48.272;11.562;2024-02-26T04:06:22;38.50;;;18.60;;
4603;SDS011;2314;48.272;11.562;2024-02-26T04:08:49;36.80;;;17.90;;
4603;SDS011;2314;48.272;11.562;2024-02-26T04:11:16;36.80;;;18.83;;
4603;SDS011;2314;48.272;11.562;2024-02-26T04:13:44;34.03;;;17.80;;
4603;SDS011;2314;48.272;11.562;2024-02-26T04:16:14;33.73;;;16.63;;
4603;SDS011;2314;48.272;11.562;2024-02-26T04:18:41;37.13;;;18.90;;
4603;SDS011;2314;48.272;11.562;2024-02-26T04:21:10;36.63;;;17.43;;
4603;SDS011;2314;48.272;11.562;2024-02-26T04:23:37;28.07;;;15.70;;
4603;SDS011;2314;48.272;11.562;2024-02-26T04:26:04;33.13;;;18.03;;
4603;SDS011;2314;48.272;11.562;2024-02-26T04:28:31;31.80;;;16.10;;
4603;SDS011;2314;48.272;11.562;2024-02-26T04:30:58;34.33;;;16.73;;
4603;SDS011;2314;48.272;11.562;2024-02-26T04:33:25;28.27;;;17.27;;
4603;SDS011;2314;48.272;11.562;2024-02-26T04:35:52;42.43;;;16.30;;
4603;SDS011;2314;48.272;11.562;2024-02-26T04:38:20;29.23;;;15.60;;
4603;SDS011;2314;48.272;11.562;2024-02-26T04:40:47;34.70;;;16.43;;
4603;SDS011;2314;48.272;11.562;2024-02-26T04:43:14;32.20;;;15.60;;
4603;SDS011;2314;48.272;11.562;2024-02-26T04:45:43;29.53;;;14.40;;
4603;SDS011;2314;48.272;11.562;2024-02-26T04:48:10;30.47;;;15.73;;
4603;SDS011;2314;48.272;11.562;2024-02-26T04:50:37;30.60;;;14.53;;
4603;SDS011;2314;48.272;11.562;2024-02-26T04:53:04;27.77;;;14.50;;
4603;SDS011;2314;48.272;11.562;2024-02-26T04:55:32;32.10;;;15.37;;
4603;SDS011;2314;48.272;11.562;2024-02-26T04:57:59;29.40;;;15.53;;
4603;SDS011;2314;48.272;11.562;2024-02-26T05:00:26;35.00;;;15.23;;
4603;SDS011;2314;48.272;11.562;2024-02-26T05:02:53;33.30;;;17.73;;
4603;SDS011;2314;48.272;11.562;2024-02-26T05:05:20;30.17;;;15.57;;
4603;SDS011;2314;48.272;11.562;2024-02-26T05:07:47;29.60;;;15.03;;
4603;SDS011;2314;48.272;11.562;2024-02-26T05:10:14;32.73;;;16.73;;
4603;SDS011;2314;48.272;11.562;2024-02-26T05:12:42;30.97;;;15.60;;
4603;SDS011;2314;48.272;11.562;2024-02-26T05:15:09;28.43;;;15.40;;
4603;SDS011;2314;48.272;11.562;2024-02-26T05:17:40;30.43;;;16.60;;
4603;SDS011;2314;48.272;11.562;2024-02-26T05:20:08;30.10;;;14.90;;
4603;SDS011;2314;48.272;11.562;2024-02-26T05:22:35;28.60;;;15.53;;
4603;SDS011;2314;48.272;11.562;2024-02-26T05:25:03;32.13;;;16.70;;
4603;SDS011;2314;48.272;11.562;2024-02-26T05:27:31;28.30;;;15.97;;
4603;SDS011;2314;48.272;11.562;2024-02-26T05:29:59;30.17;;;15.03;;
4603;SDS011;2314;48.272;11.562;2024-02-26T05:32:26;27.37;;;15.60;;
4603;SDS011;2314;48.272;11.562;2024-02-26T05:34:53;28.50;;;15.30;;
4603;SDS011;2314;48.272;11.562;2024-02-26T05:37:20;32.33;;;17.60;;
4603;SDS011;2314;48.272;11.562;2024-02-26T05:39:47;29.77;;;15.43;;
4603;SDS011;2314;48.272;11.562;2024-02-26T05:42:14;28.57;;;16.83;;
4603;SDS011;2314;48.272;11.562;2024-02-26T05:44:41;24.97;;;13.13;;
4603;SDS011;2314;48.272;11.562;2024-02-26T05:47:09;28.57;;;15.67;;
4603;SDS011;2314;48.272;11.562;2024-02-26T05:49:36;34.43;;;15.37;;
4603;SDS011;2314;48.272;11.562;2024-02-26T05:52:04;31.00;;;15.37;;
4603;SDS011;2314;48.272;11.562;2024-02-26T05:54:31;32.80;;;15.97;;
4603;SDS011;2314;48.272;11.562;2024-02-26T05:56:58;28.90;;;15.50;;
4603;SDS011;2314;48.272;11.562;2024-02-26T05:59:25;27.63;;;15.47;;
4603;SDS011;2314;48.272;11.562;2024-02-26T06:01:52;29.57;;;15.83;;
4603;SDS011;2314;48.272;11.562;2024-02-26T06:04:21;29.87;;;16.40;;
4603;SDS011;2314;48.272;11.562;2024-02-26T06:06:48;30.57;;;16.40;;
4603;SDS011;2314;48.272;11.562;2024-02-26T06:09:15;31.37;;;16.60;;
4603;SDS011;2314;48.272;11.562;2024-02-26T06:11:41;27.83;;;15.00;;
4603;SDS011;2314;48.272;11.562;2024-02-26T06:14:08;31.90;;;17.00;;
4603;SDS011;2314;48.272;11.562;2024-02-26T06:16:37;35.70;;;14.20;;
4603;SDS011;2314;48.272;11.562;2024-02-26T06:19:04;29.80;;;15.57;;
4603;SDS011;2314;48.272;11.562;2024-02-26T06:21:33;29.30;;;15.60;;
4603;SDS011;2314;48.272;11.562;2024-02-26T06:24:00;28.53;;;14.97;;
4603;SDS011;2314;48.272;11.562;2024-02-26T06:26:27;27.93;;;14.27;;
4603;SDS011;2314;48.272;11.562;2024-02-26T06:28:54;33.97;;;14.50;;
4603;SDS011;2314;48.272;11.562;2024-02-26T06:31:21;26.40;;;13.73;;
4603;SDS011;2314;48.272;11.562;2024-02-26T06:33:49;22.50;;;12.93;;
4603;SDS011;2314;48.272;11.562;2024-02-26T06:36:16;27.83;;;14.00;;
4603;SDS011;2314;48.272;11.562;2024-02-26T06:38:44;31.43;;;16.00;;
4603;SDS011;2314;48.272;11.562;2024-02-26T06:41:11;24.17;;;14.27;;
4603;SDS011;2314;48.272;11.562;2024-02-26T06:43:38;24.30;;;12.83;;
4603;SDS011;2314;48.272;11.562;2024-02-26T06:46:05;25.20;;;12.43;;
4603;SDS011;2314;48.272;11.562;2024-02-26T06:48:32;26.60;;;12.63;;
4603;SDS011;2314;48.272;11.562;2024-02-26T06:51:01;28.97;;;13.20;;
4603;SDS011;2314;48.272;11.562;2024-02-26T06:53:29;26.90;;;13.13;;
4603;SDS011;2314;48.272;11.562;2024-02-26T06:55:57;26.47;;;14.23;;
4603;SDS011;2314;48.272;11.562;2024-02-26T06:58:24;22.83;;;13.10;;
4603;SDS011;2314;48.272;11.562;2024-02-26T07:00:51;23.87;;;12.83;;
4603;SDS011;2314;48.272;11.562;2024-02-26T07:03:18;20.60;;;11.47;;
4603;SDS011;2314;48.272;11.562;2024-02-26T07:05:47;20.37;;;12.30;;
4603;SDS011;2314;48.272;11.562;2024-02-26T07:08:14;23.57;;;13.13;;
4603;SDS011;2314;48.272;11.562;2024-02-26T07:10:41;21.73;;;12.00;;
4603;SDS011;2314;48.272;11.562;2024-02-26T07:13:10;21.17;;;12.13;;
4603;SDS011;2314;48.272;11.562;2024-02-26T07:15:37;22.90;;;12.27;;
4603;SDS011;2314;48.272;11.562;2024-02-26T07:18:04;20.80;;;11.37;;
4603;SDS011;2314;48.272;11.562;2024-02-26T07:20:31;16.03;;;10.03;;
4603;SDS011;2314;48.272;11.562;2024-02-26T07:22:58;25.23;;;12.43;;
4603;SDS011;2314;48.272;11.562;2024-02-26T07:25:25;22.30;;;12.00;;
4603;SDS011;2314;48.272;11.562;2024-02-26T07:27:52;21.07;;;11.53;;
4603;SDS011;2314;48.272;11.562;2024-02-26T07:30:21;25.07;;;12.50;;
4603;SDS011;2314;48.272;11.562;2024-02-26T07:32:49;20.20;;;10.30;;
4603;SDS011;2314;48.272;11.562;2024-02-26T07:35:16;22.37;;;11.10;;
4603;SDS011;2314;48.272;11.562;2024-02-26T07:37:43;22.40;;;10.73;;
4603;SDS011;2314;48.272;11.562;2024-02-26T07:40:10;16.43;;;9.90;;
4603;SDS011;2314;48.272;11.562;2024-02-26T07:42:38;21.70;;;9.70;;
4603;SDS011;2314;48.272;11.562;2024-02-26T07:45:05;17.27;;;9.83;;
4603;SDS011;2314;48.272;11.562;2024-02-26T07:47:34;18.23;;;9.77;;
4603;SDS011;2314;48.272;11.562;2024-02-26T07:50:06;17.30;;;10.03;;
4603;SDS011;2314;48.272;11.562;2024-02-26T07:52:34;17.30;;;10.43;;
4603;SDS011;2314;48.272;11.562;2024-02-26T07:55:01;17.17;;;9.47;;
4603;SDS011;2314;48.272;11.562;2024-02-26T07:57:28;19.20;;;9.77;;
4603;SDS011;2314;48.272;11.562;2024-02-26T07:59:56;13.63;;;8.47;;
4603;SDS011;2314;48.272;11.562;2024-02-26T08:02:23;16.03;;;9.13;;
4603;SDS011;2314;48.272;11.562;2024-02-26T08:04:51;16.07;;;8.80;;
4603;SDS011;2314;48.272;11.562;2024-02-26T08:07:18;13.07;;;8.17;;
4603;SDS011;2314;48.272;11.562;2024-02-26T08:09:46;14.93;;;8.13;;
4603;SDS011;2314;48.272;11.562;2024-02-26T08:12:13;14.03;;;8.00;;
4603;SDS011;2314;48.272;11.562;2024-02-26T08:14:40;20.37;;;10.07;;
4603;SDS011;2314;48.272;11.562;2024-02-26T08:17:07;16.93;;;7.93;;
4603;SDS011;2314;48.272;11.562;2024-02-26T08:19:34;12.60;;;9.33;;
4603;SDS011;2314;48.272;11.562;2024-02-26T08:22:03;13.47;;;7.50;;
4603;SDS011;2314;48.272;11.562;2024-02-26T08:24:30;15.40;;;7.50;;
4603;SDS011;2314;48.272;11.562;2024-02-26T08:26:57;13.60;;;8.57;;
4603;SDS011;2314;48.272;11.562;2024-02-26T08:29:24;13.37;;;7.87;;
4603;SDS011;2314;48.272;11.562;2024-02-26T08:31:51;13.47;;;7.13;;
4603;SDS011;2314;48.272;11.562;2024-02-26T08:34:18;18.30;;;7.50;;
4603;SDS011;2314;48.272;11.562;2024-02-26T08:36:45;13.77;;;7.77;;
4603;SDS011;2314;48.272;11.562;2024-02-26T08:39:15;14.03;;;6.97;;
4603;SDS011;2314;48.272;11.562;2024-02-26T08:41:42;12.07;;;6.23;;
4603;SDS011;2314;48.272;11.562;2024-02-26T08:44:09;11.50;;;6.97;;
4603;SDS011;2314;48.272;11.562;2024-02-26T08:46:37;14.20;;;7.57;;
4603;SDS011;2314;48.272;11.562;2024-02-26T08:49:04;12.27;;;7.00;;
4603;SDS011;2314;48.272;11.562;2024-02-26T08:51:31;13.03;;;6.50;;
4603;SDS011;2314;48.272;11.562;2024-02-26T08:53:58;10.70;;;6.37;;
4603;SDS011;2314;48.272;11.562;2024-02-26T08:56:26;11.50;;;6.17;;
4603;SDS011;2314;48.272;11.562;2024-02-26T08:58:53;9.80;;;6.03;;
4603;SDS011;2314;48.272;11.562;2024-02-26T09:01:22;11.17;;;6.87;;
4603;SDS011;2314;48.272;11.562;2024-02-26T09:03:49;10.87;;;6.37;;
4603;SDS011;2314;48.272;11.562;2024-02-26T09:06:17;12.80;;;6.47;;
4603;SDS011;2314;48.272;11.562;2024-02-26T09:08:44;12.83;;;6.10;;
4603;SDS011;2314;48.272;11.562;2024-02-26T09:11:11;10.60;;;6.50;;
4603;SDS011;2314;48.272;11.562;2024-02-26T09:13:39;8.43;;;5.40;;
4603;SDS011;2314;48.272;11.562;2024-02-26T09:16:07;11.20;;;5.73;;
4603;SDS011;2314;48.272;11.562;2024-02-26T09:18:34;9.07;;;5.27;;
4603;SDS011;2314;48.272;11.562;2024-02-26T09:21:03;8.90;;;5.33;;
4603;SDS011;2314;48.272;11.562;2024-02-26T09:23:31;11.73;;;6.07;;
4603;SDS011;2314;48.272;11.562;2024-02-26T09:26:00;10.57;;;5.13;;
4603;SDS011;2314;48.272;11.562;2024-02-26T09:28:27;10.07;;;6.27;;
4603;SDS011;2314;48.272;11.562;2024-02-26T09:30:58;9.90;;;5.80;;
4603;SDS011;2314;48.272;11.562;2024-02-26T09:33:25;7.20;;;4.30;;
4603;SDS011;2314;48.272;11.562;2024-02-26T09:35:52;7.30;;;4.60;;
4603;SDS011;2314;48.272;11.562;2024-02-26T09:38:19;8.10;;;4.90;;
4603;SDS011;2314;48.272;11.562;2024-02-26T09:40:45;7.80;;;4.60;;
4603;SDS011;2314;48.272;11.562;2024-02-26T09:43:13;8.23;;;4.57;;
4603;SDS011;2314;48.272;11.562;2024-02-26T09:45:41;7.57;;;4.23;;
4603;SDS011;2314;48.272;11.562;2024-02-26T09:48:11;7.30;;;4.43;;
4603;SDS011;2314;48.272;11.562;2024-02-26T09:50:39;7.40;;;4.40;;
4603;SDS011;2314;48.272;11.562;2024-02-26T09:53:08;4.73;;;3.50;;
4603;SDS011;2314;48.272;11.562;2024-02-26T09:55:36;5.63;;;3.10;;
4603;SDS011;2314;48.272;11.562;2024-02-26T09:58:04;6.70;;;3.63;;
4603;SDS011;2314;48.272;11.562;2024-02-26T10:00:32;5.90;;;3.10;;
4603;SDS011;2314;48.272;11.562;2024-02-26T10:03:05;7.63;;;3.63;;
4603;SDS011;2314;48.272;11.562;2024-02-26T10:05:38;6.90;;;3.27;;
4603;SDS011;2314;48.272;11.562;2024-02-26T10:08:07;5.10;;;3.20;;
4603;SDS011;2314;48.272;11.562;2024-02-26T10:10:35;5.70;;;3.07;;
4603;SDS011;2314;48.272;11.562;2024-02-26T10:13:03;4.50;;;2.57;;
4603;SDS011;2314;48.272;11.562;2024-02-26T10:15:35;7.30;;;4.00;;
4603;SDS011;2314;48.272;11.562;2024-02-26T10:18:03;6.67;;;3.90;;
4603;SDS011;2314;48.272;11.562;2024-02-26T10:20:32;6.73;;;3.97;;
4603;SDS011;2314;48.272;11.562;2024-02-26T10:23:01;6.70;;;4.07;;
4603;SDS011;2314;48.272;11.562;2024-02-26T10:25:30;6.20;;;3.83;;
4603;SDS011;2314;48.272;11.562;2024-02-26T10:27:58;33.17;;;5.60;;
4603;SDS011;2314;48.272;11.562;2024-02-26T10:30:28;8.67;;;4.20;;
4603;SDS011;2314;48.272;11.562;2024-02-26T10:32:55;5.90;;;3.30;;
4603;SDS011;2314;48.272;11.562;2024-02-26T10:35:23;7.67;;;3.70;;
4603;SDS011;2314;48.272;11.562;2024-02-26T10:37:52;5.73;;;2.90;;
4603;SDS011;2314;48.272;11.562;2024-02-26T10:40:19;4.63;;;2.80;;
4603;SDS011;2314;48.272;11.562;2024-02-26T10:42:46;4.80;;;2.80;;
4603;SDS011;2314;48.272;11.562;2024-02-26T10:45:13;5.00;;;3.00;;
4603;SDS011;2314;48.272;11.562;2024-02-26T10:47:40;6.40;;;2.77;;
4603;SDS011;2314;48.272;11.562;2024-02-26T10:50:08;5.10;;;2.90;;
4603;SDS011;2314;48.272;11.562;2024-02-26T10:52:36;5.77;;;2.93;;
4603;SDS011;2314;48.272;11.562;2024-02-26T10:55:05;5.73;;;2.80;;
4603;SDS011;2314;48.272;11.562;2024-02-26T10:57:33;5.43;;;3.10;;
4603;SDS011;2314;48.272;11.562;2024-02-26T11:00:05;4.30;;;2.30;;
4603;SDS011;2314;48.272;11.562;2024-02-26T11:02:35;4.37;;;2.47;;
4603;SDS011;2314;48.272;11.562;2024-02-26T11:05:03;5.00;;;1.63;;
4603;SDS011;2314;48.272;11.562;2024-02-26T11:07:30;4.83;;;1.97;;
4603;SDS011;2314;48.272;11.562;2024-02-26T11:09:59;3.93;;;2.10;;
4603;SDS011;2314;48.272;11.562;2024-02-26T11:12:28;3.93;;;1.90;;
4603;SDS011;2314;48.272;11.562;2024-02-26T11:14:58;5.00;;;2.17;;
4603;SDS011;2314;48.272;11.562;2024-02-26T11:17:27;4.37;;;2.47;;
4603;SDS011;2314;48.272;11.562;2024-02-26T11:19:56;4.30;;;2.63;;
4603;SDS011;2314;48.272;11.562;2024-02-26T11:22:25;7.27;;;3.80;;
4603;SDS011;2314;48.272;11.562;2024-02-26T11:24:52;6.60;;;3.00;;
4603;SDS011;2314;48.272;11.562;2024-02-26T11:27:23;6.57;;;3.97;;
4603;SDS011;2314;48.272;11.562;2024-02-26T11:29:56;8.63;;;3.47;;
4603;SDS011;2314;48.272;11.562;2024-02-26T11:32:26;7.17;;;3.40;;
4603;SDS011;2314;48.272;11.562;2024-02-26T11:34:55;6.50;;;3.00;;
4603;SDS011;2314;48.272;11.562;2024-02-26T11:37:22;6.50;;;2.93;;
4603;SDS011;2314;48.272;11.562;2024-02-26T11:39:51;6.03;;;3.63;;
4603;SDS011;2314;48.272;11.562;2024-02-26T11:42:24;7.47;;;3.80;;
4603;SDS011;2314;48.272;11.562;2024-02-26T11:44:51;6.30;;;3.67;;
4603;SDS011;2314;48.272;11.562;2024-02-26T11:47:20;4.33;;;3.00;;
4603;SDS011;2314;48.272;11.562;2024-02-26T11:49:48;5.33;;;2.80;;
4603;SDS011;2314;48.272;11.562;2024-02-26T11:52:16;4.27;;;2.60;;
4603;SDS011;2314;48.272;11.562;2024-02-26T11:54:44;5.53;;;3.10;;
4603;SDS011;2314;48.272;11.562;2024-02-26T11:57:24;6.27;;;2.97;;
4603;SDS011;2314;48.272;11.562;2024-02-26T11:59:54;4.40;;;2.50;;
4603;SDS011;2314;48.272;11.562;2024-02-26T12:02:43;5.33;;;2.90;;
4603;SDS011;2314;48.272;11.562;2024-02-26T12:05:12;7.37;;;3.20;;
4603;SDS011;2314;48.272;11.562;2024-02-26T12:07:42;4.23;;;2.33;;
4603;SDS011;2314;48.272;11.562;2024-02-26T12:10:24;4.10;;;2.60;;
4603;SDS011;2314;48.272;11.562;2024-02-26T12:12:54;6.43;;;3.07;;
4603;SDS011;2314;48.272;11.562;2024-02-26T12:15:29;8.00;;;2.60;;
4603;SDS011;2314;48.272;11.562;2024-02-26T12:18:00;6.03;;;2.60;;
4603;SDS011;2314;48.272;11.562;2024-02-26T12:20:29;7.37;;;3.00;;
4603;SDS011;2314;48.272;11.562;2024-02-26T12:22:56;4.33;;;2.17;;
4603;SDS011;2314;48.272;11.562;2024-02-26T12:25:24;6.07;;;2.60;;
4603;SDS011;2314;48.272;11.562;2024-02-26T12:27:53;4.03;;;2.40;;
4603;SDS011;2314;48.272;11.562;2024-02-26T12:30:20;3.90;;;2.20;;
4603;SDS011;2314;48.272;11.562;2024-02-26T12:32:47;4.97;;;2.27;;
4603;SDS011;2314;48.272;11.562;2024-02-26T12:35:16;4.47;;;2.23;;
4603;SDS011;2314;48.272;11.562;2024-02-26T12:37:44;3.90;;;2.10;;
4603;SDS011;2314;48.272;11.562;2024-02-26T12:40:12;4.50;;;2.60;;
4603;SDS011;2314;48.272;11.562;2024-02-26T12:42:40;3.60;;;1.97;;
4603;SDS011;2314;48.272;11.562;2024-02-26T12:45:08;4.10;;;2.00;;
4603;SDS011;2314;48.272;11.562;2024-02-26T12:47:36;4.57;;;2.00;;
4603;SDS011;2314;48.272;11.562;2024-02-26T12:50:04;3.90;;;1.90;;
4603;SDS011;2314;48.272;11.562;2024-02-26T12:52:34;4.40;;;2.20;;
4603;SDS011;2314;48.272;11.562;2024-02-26T12:55:04;4.87;;;2.53;;
4603;SDS011;2314;48.272;11.562;2024-02-26T12:57:34;6.43;;;3.30;;
4603;SDS011;2314;48.272;11.562;2024-02-26T13:00:04;4.70;;;3.00;;
4603;SDS011;2314;48.272;11.562;2024-02-26T13:02:34;5.60;;;2.80;;
4603;SDS011;2314;48.272;11.562;2024-02-26T13:05:02;4.00;;;2.20;;
4603;SDS011;2314;48.272;11.562;2024-02-26T13:07:30;3.90;;;1.73;;
4603;SDS011;2314;48.272;11.562;2024-02-26T13:09:59;3.03;;;1.60;;
4603;SDS011;2314;48.272;11.562;2024-02-26T13:12:26;3.43;;;1.50;;
4603;SDS011;2314;48.272;11.562;2024-02-26T13:14:59;3.43;;;1.63;;
4603;SDS011;2314;48.272;11.562;2024-02-26T13:17:27;3.33;;;1.40;;
4603;SDS011;2314;48.272;11.562;2024-02-26T13:19:59;3.03;;;1.90;;
4603;SDS011;2314;48.272;11.562;2024-02-26T13:22:25;4.10;;;1.87;;
4603;SDS011;2314;48.272;11.562;2024-02-26T13:24:55;3.20;;;1.67;;
4603;SDS011;2314;48.272;11.562;2024-02-26T13:27:24;3.80;;;1.40;;
4603;SDS011;2314;48.272;11.562;2024-02-26T13:30:01;4.20;;;1.80;;
4603;SDS011;2314;48.272;11.562;2024-02-26T13:32:32;4.60;;;2.03;;
4603;SDS011;2314;48.272;11.562;2024-02-26T13:35:07;3.27;;;1.57;;
4603;SDS011;2314;48.272;11.562;2024-02-26T13:37:35;2.70;;;1.20;;
4603;SDS011;2314;48.272;11.562;2024-02-26T13:40:06;3.13;;;1.20;;
4603;SDS011;2314;48.272;11.562;2024-02-26T13:42:37;2.87;;;1.40;;
4603;SDS011;2314;48.272;11.562;2024-02-26T13:45:05;4.73;;;1.57;;
4603;SDS011;2314;48.272;11.562;2024-02-26T13:47:33;2.40;;;1.30;;
4603;SDS011;2314;48.272;11.562;2024-02-26T13:50:00;6.17;;;1.57;;
4603;SDS011;2314;48.272;11.562;2024-02-26T13:52:27;3.90;;;1.40;;
4603;SDS011;2314;48.272;11.562;2024-02-26T13:54:57;3.40;;;1.20;;
4603;SDS011;2314;48.272;11.562;2024-02-26T13:57:24;3.20;;;1.50;;
4603;SDS011;2314;48.272;11.562;2024-02-26T13:59:53;2.27;;;1.10;;
4603;SDS011;2314;48.272;11.562;2024-02-26T14:02:20;3.73;;;1.50;;
4603;SDS011;2314;48.272;11.562;2024-02-26T14:04:47;3.40;;;1.43;;
4603;SDS011;2314;48.272;11.562;2024-02-26T14:07:14;2.87;;;1.50;;
4603;SDS011;2314;48.272;11.562;2024-02-26T14:09:42;7.03;;;1.93;;
4603;SDS011;2314;48.272;11.562;2024-02-26T14:12:10;5.07;;;1.53;;
4603;SDS011;2314;48.272;11.562;2024-02-26T14:14:37;2.40;;;1.27;;
4603;SDS011;2314;48.272;11.562;2024-02-26T14:17:08;3.07;;;1.23;;
4603;SDS011;2314;48.272;11.562;2024-02-26T14:19:36;5.70;;;1.37;;
4603;SDS011;2314;48.272;11.562;2024-02-26T14:22:04;2.63;;;1.30;;
4603;SDS011;2314;48.272;11.562;2024-02-26T14:24:31;3.00;;;1.30;;
4603;SDS011;2314;48.272;11.562;2024-02-26T14:26:58;2.40;;;1.10;;
4603;SDS011;2314;48.272;11.562;2024-02-26T14:29:25;3.70;;;1.50;;
4603;SDS011;2314;48.272;11.562;2024-02-26T14:31:52;3.37;;;1.10;;
4603;SDS011;2314;48.272;11.562;2024-02-26T14:34:22;2.90;;;1.37;;
4603;SDS011;2314;48.272;11.562;2024-02-26T14:36:49;3.10;;;1.33;;
4603;SDS011;2314;48.272;11.562;2024-02-26T14:39:16;4.10;;;1.50;;
4603;SDS011;2314;48.272;11.562;2024-02-26T14:41:43;2.23;;;1.33;;
4603;SDS011;2314;48.272;11.562;2024-02-26T14:44:10;1.90;;;1.07;;
4603;SDS011;2314;48.272;11.562;2024-02-26T14:46:37;2.83;;;1.33;;
4603;SDS011;2314;48.272;11.562;2024-02-26T14:49:04;2.83;;;1.00;;